International Virtual Aviation Organisation

Russian Federation and Kazakhstan MCD

 
URML 041200Z 15006MPS 8000 -RA SCT005 OVC015 07/06 Q1030 R14/290560 TEMPO 2500 -RA BR BKN004 OVC010 RMK QBB170 MT OBSC QFE772/1030
QNH:(hPa/inHg/mmHg)1030 / 30.42 / 773
QFE:(hPa/inHg/mmHg)1029 / 30.40 / 772
Temperature7
Dew Point6
Visibility2500
WeatherLight Rain;Light Rain;Mist
Cloud CoverSCT (500);
OVC (1500);
BKN (400);
OVC (1000);
Transition Height3000 m./9900 ft.
Transition LevelFL110
SQUAWK